Time;durP1;ratioP1;P1;durP2;ratioP2;P2;SDS_P1;SDS_P2;PMS_P1;PMS_P2;Temp;Humidity;BMP_temperature;BMP_pressure;BME280_temperature;BME280_humidity;BME280_pressure;Samples;Min_cycle;Max_cycle;Signal;HPM_P1;HPM_P2
2023/12/09 00:05:03;;;;;;;83.28;24.45;;;7.30;99.90;;;;;;4983669;23;20063;-90
2023/12/09 00:07:29;;;;;;;64.90;23.13;;;7.30;99.90;;;;;;4973430;28;20129;-90
2023/12/09 00:10:10;;;;;;;72.27;22.57;;;8.40;99.90;;;;;;4973665;28;20141;-90
2023/12/09 00:12:51;;;;;;;81.93;22.77;;;7.20;99.90;;;;;;4972603;28;20171;-90
2023/12/09 00:15:20;;;;;;;86.03;23.25;;;9.00;99.90;;;;;;4974191;28;20050;-91
2023/12/09 00:18:04;;;;;;;76.53;23.43;;;7.50;99.90;;;;;;4997469;23;20514;-91
2023/12/09 00:20:33;;;;;;;65.37;23.00;;;7.90;99.90;;;;;;4967989;28;20064;-91
2023/12/09 00:23:13;;;;;;;73.63;22.97;;;6.30;99.90;;;;;;4970996;23;20047;-91
2023/12/09 00:25:43;;;;;;;69.30;22.70;;;8.80;99.90;;;;;;4973664;28;20060;-90
2023/12/09 00:28:08;;;;;;;71.90;23.60;;;7.30;99.90;;;;;;4972520;28;20446;-91
2023/12/09 00:30:46;;;;;;;77.80;22.93;;;6.90;99.90;;;;;;4973167;28;20042;-91
2023/12/09 00:33:12;;;;;;;66.80;22.87;;;7.50;99.90;;;;;;5189890;23;20029;-90
2023/12/09 00:40:09;;;;;;;61.15;21.90;;;8.40;99.90;;;;;;4978826;28;20054;-91
2023/12/09 00:45:25;;;;;;;68.67;21.60;;;7.30;99.90;;;;;;5021174;23;20051;-91
2023/12/09 00:51:16;;;;;;;68.70;20.93;;;8.30;99.90;;;;;;4932542;29;20578;-91
2023/12/09 00:53:48;;;;;;;72.00;21.67;;;6.50;99.90;;;;;;4974220;23;20507;-91
2023/12/09 00:56:17;;;;;;;67.00;22.63;;;8.70;99.90;;;;;;4972159;28;20053;-91
2023/12/09 00:58:43;;;;;;;56.83;21.50;;;6.60;99.90;;;;;;4973124;28;20083;-91
2023/12/09 01:01:08;;;;;;;64.50;21.63;;;7.70;99.90;;;;;;4972487;28;20149;-91
2023/12/09 01:03:40;;;;;;;59.10;19.70;;;8.70;99.90;;;;;;4973524;28;20078;-90
2023/12/09 01:06:23;;;;;;;55.50;19.87;;;7.30;99.90;;;;;;4974342;28;20043;-90
2023/12/09 01:08:58;;;;;;;56.53;19.75;;;7.10;99.90;;;;;;4954637;29;20043;-91
2023/12/09 01:11:35;;;;;;;63.72;20.90;;;7.10;99.90;;;;;;4955267;29;20148;-91
2023/12/09 01:14:13;;;;;;;59.23;20.30;;;6.50;99.90;;;;;;4958946;29;20138;-90
2023/12/09 01:16:57;;;;;;;60.55;19.98;;;6.60;99.90;;;;;;4952798;28;20407;-91
2023/12/09 01:19:23;;;;;;;48.30;19.02;;;6.90;99.90;;;;;;4952889;29;20392;-92
2023/12/09 01:21:49;;;;;;;52.63;19.07;;;8.60;99.90;;;;;;5315791;23;20056;-91
2023/12/09 01:24:23;;;;;;;51.22;20.58;;;7.80;99.90;;;;;;4974961;28;20061;-91
2023/12/09 01:26:51;;;;;;;53.17;19.77;;;7.40;99.90;;;;;;4975897;28;20046;-91
2023/12/09 01:29:17;;;;;;;53.60;18.60;;;8.70;99.90;;;;;;4974963;28;20042;-91
2023/12/09 01:31:51;;;;;;;58.83;18.73;;;7.40;99.90;;;;;;4975759;28;20093;-90
2023/12/09 01:34:20;;;;;;;58.23;19.03;;;8.70;99.90;;;;;;4975694;28;20050;-91
2023/12/09 01:37:07;;;;;;;52.30;18.93;;;8.50;99.90;;;;;;4975166;28;20038;-91
2023/12/09 01:39:33;;;;;;;54.63;18.77;;;8.70;99.90;;;;;;4988352;23;20105;-91
2023/12/09 01:42:08;;;;;;;52.20;18.52;;;6.60;99.90;;;;;;4975611;28;20049;-91
2023/12/09 01:44:49;;;;;;;50.27;19.90;;;7.40;99.90;;;;;;4974950;28;20043;-91
2023/12/09 01:47:35;;;;;;;61.27;20.13;;;7.20;99.90;;;;;;4980919;23;20042;-91
2023/12/09 01:51:03;;;;;;;50.43;18.80;;;8.60;99.90;;;;;;4970078;23;20141;-91
2023/12/09 01:54:19;;;;;;;51.60;19.37;;;8.10;99.90;;;;;;4952850;29;20095;-91
2023/12/09 01:56:45;;;;;;;59.87;19.03;;;7.40;99.90;;;;;;4952394;29;20055;-91
2023/12/09 01:59:17;;;;;;;52.10;18.98;;;7.40;99.90;;;;;;4952406;29;20047;-92
2023/12/09 02:01:44;;;;;;;45.33;18.10;;;8.00;99.90;;;;;;4952931;28;20051;-91
2023/12/09 02:04:19;;;;;;;50.93;18.53;;;8.10;99.90;;;;;;4951978;29;20142;-92
2023/12/09 02:06:53;;;;;;;46.80;17.10;;;6.90;99.90;;;;;;4953019;29;20063;-91
2023/12/09 02:09:20;;;;;;;52.57;17.73;;;8.30;99.90;;;;;;4952976;29;20086;-91
2023/12/09 02:12:13;;;;;;;45.80;17.67;;;6.90;99.90;;;;;;4952426;29;20048;-92
2023/12/09 02:14:51;;;;;;;43.93;17.47;;;7.30;99.90;;;;;;4953272;29;20126;-91
2023/12/09 02:17:22;;;;;;;47.53;17.37;;;7.30;99.90;;;;;;4953315;29;20441;-91
2023/12/09 02:19:48;;;;;;;48.43;17.97;;;8.20;99.90;;;;;;4952311;29;20055;-91
2023/12/09 02:22:21;;;;;;;46.17;17.20;;;7.50;99.90;;;;;;4952428;29;20046;-91
2023/12/09 02:24:52;;;;;;;44.80;17.27;;;7.40;99.90;;;;;;4952852;29;20047;-91
2023/12/09 02:27:45;;;;;;;44.93;18.47;;;7.00;99.90;;;;;;4952502;28;20170;-91
2023/12/09 02:30:46;;;;;;;41.67;15.97;;;6.70;99.90;;;;;;4921001;29;20436;-91
2023/12/09 02:33:20;;;;;;;46.70;15.97;;;8.10;99.90;;;;;;4954631;28;20054;-91
2023/12/09 02:36:01;;;;;;;;;;;8.80;99.90;;;;;;4956975;28;20047;-91
2023/12/09 02:38:41;;;;;;;41.73;16.97;;;8.50;99.90;;;;;;4997290;23;20052;-90
2023/12/09 02:41:17;;;;;;;48.57;18.10;;;6.80;99.90;;;;;;4977480;28;20433;-91
2023/12/09 02:44:06;;;;;;;42.03;16.30;;;7.00;99.90;;;;;;5144829;23;20125;-91
2023/12/09 02:46:34;;;;;;;40.90;16.67;;;8.30;99.90;;;;;;4958125;29;20062;-91
2023/12/09 02:49:03;;;;;;;45.77;16.80;;;7.70;99.90;;;;;;4955768;29;20047;-91
2023/12/09 02:51:49;;;;;;;47.33;16.53;;;7.60;99.90;;;;;;4967212;23;20184;-91
2023/12/09 02:54:20;;;;;;;46.17;16.30;;;7.40;99.90;;;;;;4968137;23;20062;-91
2023/12/09 02:56:55;;;;;;;43.47;16.17;;;6.70;99.90;;;;;;4959393;28;20047;-91
2023/12/09 03:01:52;;;;;;;47.63;17.00;;;7.40;99.90;;;;;;4989384;23;20055;-91
2023/12/09 03:04:17;;;;;;;50.47;16.27;;;9.10;99.90;;;;;;4986113;23;20069;-91
2023/12/09 03:06:47;;;;;;;42.90;15.07;;;8.70;99.90;;;;;;4993146;28;20418;-90
2023/12/09 03:10:03;;;;;;;46.53;15.80;;;7.00;99.90;;;;;;5060958;23;20082;-91
2023/12/09 03:13:20;;;;;;;40.57;15.63;;;8.20;99.90;;;;;;4958524;29;20055;-91
2023/12/09 03:15:52;;;;;;;50.13;16.10;;;7.40;99.90;;;;;;4954086;29;20138;-91
2023/12/09 03:18:18;;;;;;;43.53;16.00;;;7.40;99.90;;;;;;4954732;29;20047;-91
2023/12/09 03:24:17;;;;;;;38.43;14.90;;;7.40;99.90;;;;;;4905530;29;20051;-91
2023/12/09 03:26:58;;;;;;;40.83;14.80;;;7.40;99.90;;;;;;4955930;29;20103;-91
2023/12/09 03:30:14;;;;;;;43.37;15.03;;;8.00;99.90;;;;;;4970315;23;20058;-90
2023/12/09 03:32:43;;;;;;;38.20;14.43;;;8.30;99.90;;;;;;4981140;28;20090;-91
2023/12/09 03:35:20;;;;;;;48.13;14.90;;;6.50;99.90;;;;;;4977298;28;20442;-90
2023/12/09 03:37:55;;;;;;;36.70;13.57;;;7.30;99.90;;;;;;4977197;28;20050;-91
2023/12/09 03:40:36;;;;;;;38.47;14.00;;;7.40;99.90;;;;;;4967076;23;20047;-91
2023/12/09 03:43:07;;;;;;;44.43;14.27;;;8.40;99.90;;;;;;4975052;28;20031;-91
2023/12/09 03:46:15;;;;;;;39.63;14.87;;;6.80;99.90;;;;;;4972920;28;20047;-91
2023/12/09 03:48:53;;;;;;;38.57;13.77;;;7.40;99.90;;;;;;4951137;28;20066;-91
2023/12/09 03:51:50;;;;;;;38.80;14.30;;;7.60;99.90;;;;;;4977609;28;20089;-92
2023/12/09 03:54:34;;;;;;;40.83;14.43;;;7.70;99.90;;;;;;5104457;23;20382;-92
2023/12/09 03:57:25;;;;;;;45.03;14.45;;;7.40;99.90;;;;;;4956610;28;20519;-91
2023/12/09 03:59:59;;;;;;;44.40;14.83;;;7.00;99.90;;;;;;4958026;28;20054;-91
2023/12/09 04:04:56;;;;;;;33.80;13.47;;;7.20;99.90;;;;;;4959492;23;20054;-91
2023/12/09 04:07:39;;;;;;;38.00;13.70;;;6.80;99.90;;;;;;4957584;23;20046;-92
2023/12/09 04:10:53;;;;;;;44.97;14.53;;;7.60;99.90;;;;;;4976432;28;20482;-91
2023/12/09 04:13:30;;;;;;;37.13;14.23;;;6.80;99.90;;;;;;4967689;28;20077;-91
2023/12/09 04:16:12;;;;;;;44.40;13.97;;;7.20;99.90;;;;;;4980059;23;20046;-91
2023/12/09 04:19:29;;;;;;;44.33;14.27;;;8.10;99.90;;;;;;4954164;29;20043;-91
2023/12/09 04:22:23;;;;;;;41.13;14.97;;;7.20;99.90;;;;;;4974149;28;20495;-91
2023/12/09 04:24:58;;;;;;;49.33;15.30;;;7.10;99.90;;;;;;4973139;28;20053;-90
2023/12/09 04:27:33;;;;;;;40.50;14.07;;;8.60;99.90;;;;;;4975520;28;20078;-91
2023/12/09 04:30:06;;;;;;;40.50;13.88;;;7.70;99.90;;;;;;4974284;28;20097;-91
2023/12/09 04:32:37;;;;;;;41.70;13.70;;;7.20;99.90;;;;;;4983286;23;20069;-91
2023/12/09 04:35:29;;;;;;;38.08;14.30;;;7.20;99.90;;;;;;4976684;28;20078;-92
2023/12/09 04:38:13;;;;;;;41.57;14.03;;;7.20;99.90;;;;;;5009619;23;20433;-91
2023/12/09 04:40:42;;;;;;;38.30;14.45;;;7.30;99.90;;;;;;4953412;29;20050;-91
2023/12/09 04:43:15;;;;;;;40.30;13.63;;;8.00;99.90;;;;;;4961423;23;20130;-91
2023/12/09 04:46:34;;;;;;;43.80;13.43;;;8.00;99.90;;;;;;4973652;23;20086;-92
2023/12/09 04:49:26;;;;;;;39.67;14.23;;;7.00;99.90;;;;;;4971672;28;20050;-91
2023/12/09 04:52:05;;;;;;;38.30;14.03;;;7.10;99.90;;;;;;4972405;28;20050;-89
2023/12/09 04:54:40;;;;;;;39.97;13.33;;;6.70;99.90;;;;;;4972404;28;20053;-91
2023/12/09 04:57:06;;;;;;;43.07;13.53;;;8.40;99.90;;;;;;4974517;28;20430;-90
2023/12/09 04:59:40;;;;;;;45.70;13.73;;;8.70;99.90;;;;;;4973934;28;20102;-91
2023/12/09 05:02:10;;;;;;;31.63;13.27;;;7.40;99.90;;;;;;4971820;28;20098;-90
2023/12/09 05:04:38;;;;;;;40.87;13.23;;;6.80;99.90;;;;;;4968551;28;20403;-91
2023/12/09 05:07:17;;;;;;;38.37;14.00;;;7.10;99.90;;;;;;4953021;29;20070;-91
2023/12/09 05:09:54;;;;;;;37.73;13.37;;;6.40;99.90;;;;;;4952542;29;20047;-91
2023/12/09 05:12:35;;;;;;;37.00;13.33;;;7.80;99.90;;;;;;4967304;28;20031;-90
2023/12/09 05:15:10;;;;;;;37.07;13.57;;;8.20;99.90;;;;;;4951652;29;20194;-90
2023/12/09 05:17:45;;;;;;;43.47;13.20;;;8.50;99.90;;;;;;4953490;29;20503;-91
2023/12/09 05:20:11;;;;;;;41.67;13.30;;;8.00;99.90;;;;;;4952949;29;20051;-90
2023/12/09 05:22:42;;;;;;;42.80;13.13;;;6.90;99.90;;;;;;4953194;29;20047;-89
2023/12/09 05:25:16;;;;;;;37.87;12.70;;;7.10;99.90;;;;;;4952880;29;20069;-91
2023/12/09 05:27:52;;;;;;;36.47;13.07;;;7.10;99.90;;;;;;4968487;23;20050;-90
2023/12/09 05:30:43;;;;;;;33.47;12.57;;;8.20;99.90;;;;;;4967826;23;20496;-90
2023/12/09 05:33:09;;;;;;;37.40;13.80;;;7.00;99.90;;;;;;4952630;29;20491;-91
2023/12/09 05:35:43;;;;;;;38.78;13.10;;;6.50;99.90;;;;;;4954231;29;20046;-90
2023/12/09 05:38:15;;;;;;;41.00;13.37;;;6.90;99.90;;;;;;4953113;29;20054;-90
2023/12/09 05:43:24;;;;;;;41.57;12.80;;;7.00;99.90;;;;;;4999038;23;20047;-91
2023/12/09 05:46:00;;;;;;;40.30;13.53;;;7.10;99.90;;;;;;4956918;28;20141;-91
2023/12/09 05:48:51;;;;;;;39.40;12.57;;;7.00;99.90;;;;;;4917519;29;20055;-91
2023/12/09 05:51:31;;;;;;;34.93;12.00;;;7.10;99.90;;;;;;4924036;23;20052;-90
2023/12/09 05:54:48;;;;;;;33.00;12.43;;;8.50;99.90;;;;;;4935789;29;20051;-90
2023/12/09 05:57:17;;;;;;;33.93;12.70;;;7.40;99.90;;;;;;4932477;29;20086;-90
2023/12/09 06:00:01;;;;;;;30.67;11.47;;;6.80;99.90;;;;;;4933920;29;20483;-91
2023/12/09 06:05:17;;;;;;;35.70;12.53;;;6.90;99.90;;;;;;4961644;23;20070;-91
2023/12/09 06:07:58;;;;;;;36.67;12.17;;;7.10;99.90;;;;;;4957499;29;20043;-90
2023/12/09 06:15:45;;;;;;;39.60;11.53;;;6.90;99.90;;;;;;4898872;29;20366;-91
2023/12/09 06:18:19;;;;;;;31.97;11.07;;;6.50;99.90;;;;;;4898558;29;20143;-91
2023/12/09 06:20:45;;;;;;;33.43;11.20;;;8.40;99.90;;;;;;4884446;29;20056;-90
2023/12/09 06:23:27;;;;;;;32.83;11.70;;;6.80;99.90;;;;;;4885800;29;20378;-90
2023/12/09 06:31:10;;;;;;;32.87;10.60;;;6.80;99.90;;;;;;4980498;23;19926;-91
2023/12/09 06:33:41;;;;;;;35.13;10.17;;;7.80;99.90;;;;;;4972789;23;20131;-91
2023/12/09 06:36:19;;;;;;;27.00;10.63;;;7.00;99.90;;;;;;4962524;23;20105;-92
2023/12/09 06:38:56;;;;;;;29.70;10.43;;;6.80;99.90;;;;;;4956370;29;20060;-91
2023/12/09 06:41:30;;;;;;;27.50;10.40;;;6.50;99.90;;;;;;4955969;29;20052;-91
2023/12/09 06:44:05;;;;;;;25.70;9.37;;;6.70;99.90;;;;;;4975020;28;20129;-90
2023/12/09 06:47:32;;;;;;;;;;;;;;;;;;;;;
2023/12/09 06:50:48;;;;;;;29.83;8.60;;;7.00;99.90;;;;;;4951387;28;20065;-93
2023/12/09 06:53:16;;;;;;;24.70;7.43;;;6.80;99.90;;;;;;4958317;28;20489;-84
2023/12/09 06:55:45;;;;;;;23.60;7.77;;;8.20;99.90;;;;;;4958358;28;20047;-85
2023/12/09 06:58:23;;;;;;;31.23;8.40;;;6.50;99.90;;;;;;5260258;23;20519;-83
2023/12/09 07:01:39;;;;;;;24.17;7.30;;;6.90;99.90;;;;;;4955024;29;20122;-86
2023/12/09 07:04:12;;;;;;;21.93;7.50;;;6.20;99.90;;;;;;4954622;29;20052;-84
2023/12/09 07:06:37;;;;;;;22.97;7.83;;;6.40;99.90;;;;;;4955172;29;20526;-85
2023/12/09 07:09:25;;;;;;;15.97;5.43;;;8.20;99.90;;;;;;4955676;29;20055;-85
2023/12/09 07:11:51;;;;;;;14.40;4.47;;;7.60;99.90;;;;;;4955485;29;20074;-85
2023/12/09 07:14:19;;;;;;;15.43;4.77;;;7.70;99.90;;;;;;4954121;28;20082;-85
2023/12/09 07:16:48;;;;;;;19.17;4.87;;;6.70;99.90;;;;;;5021442;23;20079;-85
2023/12/09 07:19:18;;;;;;;16.53;5.07;;;7.50;99.90;;;;;;5009441;23;20058;-85
2023/12/09 07:21:47;;;;;;;17.23;5.07;;;6.70;99.90;;;;;;4937279;29;20055;-85
2023/12/09 07:24:13;;;;;;;12.77;4.70;;;6.60;99.90;;;;;;4938488;29;20046;-85
2023/12/09 07:26:57;;;;;;;17.83;4.97;;;7.40;99.90;;;;;;4939039;29;20047;-85
2023/12/09 07:29:37;;;;;;;13.77;4.45;;;5.80;99.90;;;;;;4939021;29;20407;-86
2023/12/09 07:32:12;;;;;;;18.17;4.73;;;6.40;99.90;;;;;;4938965;29;20082;-84
2023/12/09 07:34:41;;;;;;;17.37;4.33;;;6.00;99.90;;;;;;4939014;29;20035;-83
2023/12/09 07:37:31;;;;;;;16.43;4.37;;;5.80;99.90;;;;;;4937854;29;20058;-83
2023/12/09 08:17:02;;;;;;;20.90;4.80;;;6.30;99.90;;;;;;5214002;23;20105;-84
2023/12/09 08:19:49;;;;;;;16.13;4.33;;;5.10;99.90;;;;;;4956592;28;20511;-85
2023/12/09 08:22:30;;;;;;;14.13;4.10;;;6.70;99.90;;;;;;4957610;28;20042;-84
2023/12/09 08:32:20;;;;;;;17.87;4.17;;;6.70;99.90;;;;;;4957217;28;20050;-86
2023/12/09 08:35:41;;;;;;;17.23;5.47;;;5.50;99.90;;;;;;4957533;28;20391;-86
2023/12/09 08:38:10;;;;;;;21.37;4.17;;;5.20;99.90;;;;;;4956899;28;20522;-86
2023/12/09 08:40:35;;;;;;;19.10;4.13;;;5.90;99.90;;;;;;5198453;23;20062;-85
2023/12/09 08:43:10;;;;;;;18.00;4.10;;;6.70;99.90;;;;;;4976748;28;20088;-88
2023/12/09 08:46:11;;;;;;;18.40;4.73;;;5.90;99.90;;;;;;4975811;28;20050;-84
2023/12/09 08:48:58;;;;;;;19.37;4.10;;;6.30;99.90;;;;;;4976912;28;20042;-86
2023/12/09 08:51:46;;;;;;;17.87;4.03;;;6.10;99.90;;;;;;4976517;28;20519;-85
2023/12/09 08:54:24;;;;;;;14.77;3.97;;;5.60;99.90;;;;;;4975575;28;20054;-84
2023/12/09 08:57:10;;;;;;;16.37;4.33;;;7.70;99.90;;;;;;4976717;28;20058;-85
2023/12/09 08:59:39;;;;;;;18.30;4.20;;;7.40;99.90;;;;;;4975340;28;20898;-85
2023/12/09 09:02:07;;;;;;;17.83;4.10;;;6.10;99.90;;;;;;4975834;28;20124;-85
2023/12/09 09:04:39;;;;;;;16.67;4.13;;;6.50;99.90;;;;;;4976131;28;20398;-84
2023/12/09 09:07:04;;;;;;;16.50;3.87;;;5.50;99.90;;;;;;4974802;28;20061;-85
2023/12/09 09:09:31;;;;;;;19.73;4.03;;;7.40;99.90;;;;;;4975994;28;20051;-85
2023/12/09 09:12:26;;;;;;;17.53;4.23;;;6.00;99.90;;;;;;4988737;23;20396;-85
2023/12/09 09:14:51;;;;;;;20.77;4.27;;;6.50;99.90;;;;;;4973636;28;20125;-85
2023/12/09 09:17:17;;;;;;;14.13;4.47;;;6.00;99.90;;;;;;4975712;28;20181;-85
2023/12/09 09:19:43;;;;;;;15.17;4.10;;;7.30;99.90;;;;;;4975505;28;20374;-85
2023/12/09 09:22:09;;;;;;;22.37;5.40;;;7.60;99.90;;;;;;4974907;28;20049;-85
2023/12/09 09:24:35;;;;;;;15.13;4.37;;;7.90;99.90;;;;;;4975464;28;20056;-84
2023/12/09 09:27:24;;;;;;;20.27;4.50;;;6.10;99.90;;;;;;4975707;28;20042;-87
2023/12/09 09:30:01;;;;;;;17.87;5.87;;;5.80;99.90;;;;;;4975624;28;20403;-86
2023/12/09 09:32:30;;;;;;;20.83;4.60;;;6.90;99.90;;;;;;4976757;28;20121;-87
2023/12/09 09:35:06;;;;;;;19.93;4.90;;;6.90;99.90;;;;;;4974943;28;20053;-88
2023/12/09 09:37:44;;;;;;;18.73;4.10;;;6.50;99.90;;;;;;4978719;28;20530;-86
2023/12/09 09:56:50;;;;;;;17.47;4.87;;;5.80;99.90;;;;;;5085045;23;20117;-86
2023/12/09 09:59:20;;;;;;;14.43;4.13;;;6.70;99.90;;;;;;4959003;29;20051;-86
2023/12/09 10:01:54;;;;;;;15.77;4.63;;;7.90;99.90;;;;;;4953507;29;20130;-87
2023/12/09 10:04:38;;;;;;;15.03;4.30;;;6.50;99.90;;;;;;4973183;28;20134;-86
2023/12/09 10:07:04;;;;;;;15.55;4.03;;;8.30;99.90;;;;;;4957817;28;20047;-86
2023/12/09 10:09:42;;;;;;;16.63;4.67;;;8.00;99.90;;;;;;4956548;28;20043;-85
2023/12/09 10:12:08;;;;;;;17.60;4.07;;;6.80;99.90;;;;;;4957397;28;20130;-85
2023/12/09 10:14:34;;;;;;;13.13;4.37;;;8.60;99.90;;;;;;4959157;23;20047;-86
2023/12/09 10:17:03;;;;;;;18.13;4.17;;;7.10;99.90;;;;;;4945313;23;20174;-86
2023/12/09 10:20:06;;;;;;;17.57;4.80;;;7.10;99.90;;;;;;4959060;28;20130;-87
2023/12/09 10:25:48;;;;;;;15.33;3.97;;;7.30;99.90;;;;;;4977547;23;20101;-87
2023/12/09 10:28:17;;;;;;;16.77;4.23;;;6.30;99.90;;;;;;4959676;28;20047;-87
2023/12/09 10:31:05;;;;;;;15.03;3.83;;;8.20;99.90;;;;;;4960653;28;20101;-86
2023/12/09 10:33:56;;;;;;;12.23;3.37;;;7.40;99.90;;;;;;4959138;28;20050;-87
2023/12/09 10:36:29;;;;;;;15.10;4.53;;;8.00;99.90;;;;;;4948739;28;20059;-86
2023/12/09 10:55:46;;;;;;;;;;;;;;;;;;;;;
2023/12/09 10:58:40;;;;;;;10.87;2.83;;;7.30;99.90;;;;;;4945759;29;20051;-85
2023/12/09 11:01:28;;;;;;;12.27;2.93;;;7.80;99.90;;;;;;4942316;28;20196;-86
2023/12/09 11:04:16;;;;;;;12.90;3.10;;;7.50;99.90;;;;;;4942649;29;20048;-85
2023/12/09 11:13:59;;;;;;;9.43;3.50;;;7.50;99.90;;;;;;4958835;23;20078;-86
2023/12/09 11:17:54;;;;;;;11.10;2.30;;;6.80;99.90;;;;;;4975641;28;20443;-86
2023/12/09 11:24:01;;;;;;;10.43;2.53;;;7.50;99.90;;;;;;4957471;28;20051;-86
2023/12/09 11:29:30;;;;;;;10.57;3.23;;;7.60;99.90;;;;;;5132230;23;20392;-86
2023/12/09 11:32:46;;;;;;;12.68;3.05;;;7.60;99.90;;;;;;4977320;28;20482;-85
2023/12/09 11:35:49;;;;;;;12.23;3.00;;;7.60;99.90;;;;;;4977408;28;20050;-86
2023/12/09 11:38:16;;;;;;;10.27;2.30;;;7.00;99.90;;;;;;4977904;28;20449;-86
2023/12/09 11:41:06;;;;;;;10.20;2.53;;;7.70;99.90;;;;;;4976847;28;20050;-87
2023/12/09 11:44:03;;;;;;;11.07;2.67;;;7.90;99.90;;;;;;4966449;28;20053;-89
2023/12/09 11:49:11;;;;;;;11.90;2.37;;;7.60;99.90;;;;;;4965374;23;20078;-88
2023/12/09 11:51:52;;;;;;;8.70;2.53;;;7.50;99.90;;;;;;4919050;29;20048;-86
2023/12/09 11:54:39;;;;;;;12.97;2.30;;;7.30;99.90;;;;;;4919582;29;20063;-87
2023/12/09 12:02:44;;;;;;;10.37;2.50;;;7.60;99.90;;;;;;4959516;28;20442;-85
2023/12/09 12:05:34;;;;;;;11.90;2.40;;;7.10;99.90;;;;;;4939534;28;20055;-85
2023/12/09 12:09:06;;;;;;;13.20;2.87;;;7.20;99.90;;;;;;4958256;28;20054;-93
2023/12/09 12:17:54;;;;;;;12.03;2.30;;;7.60;99.90;;;;;;5957648;23;20248;-88
2023/12/09 12:21:25;;;;;;;;;;;;;;;;;;;;;
2023/12/09 12:46:22;;;;;;;11.67;2.40;;;7.50;99.90;;;;;;4956205;28;20462;-87
2023/12/09 12:48:56;;;;;;;8.63;2.20;;;7.50;99.90;;;;;;4957146;28;20051;-87
2023/12/09 13:16:37;;;;;;;10.23;2.40;;;7.50;99.90;;;;;;4951770;28;20052;-89
2023/12/09 13:26:02;;;;;;;8.47;2.17;;;7.50;99.90;;;;;;4962327;23;20067;-88
2023/12/09 13:28:28;;;;;;;11.47;2.50;;;7.60;99.90;;;;;;4953278;29;20051;-85
2023/12/09 13:35:07;;;;;;;11.83;2.70;;;6.80;99.90;;;;;;4952841;29;20057;-87
2023/12/09 13:47:12;;;;;;;11.40;2.50;;;7.70;99.90;;;;;;4802107;29;20189;-87
2023/12/09 13:49:44;;;;;;;11.97;2.60;;;7.40;99.90;;;;;;4834414;29;20581;-87
2023/12/09 13:52:31;;;;;;;11.47;2.60;;;7.50;99.90;;;;;;4879747;29;20044;-88
2023/12/09 14:00:14;;;;;;;10.50;2.50;;;7.30;99.90;;;;;;5214793;23;20064;-87
2023/12/09 14:03:07;;;;;;;12.53;3.03;;;7.40;99.90;;;;;;4921475;29;20501;-86
2023/12/09 14:05:51;;;;;;;12.93;2.73;;;7.60;99.90;;;;;;4851134;29;20144;-88
2023/12/09 14:08:32;;;;;;;8.20;2.60;;;7.20;99.90;;;;;;4860906;29;20482;-86
2023/12/09 14:11:07;;;;;;;14.33;2.60;;;7.00;99.90;;;;;;4972655;23;20096;-87
2023/12/09 14:14:01;;;;;;;10.27;3.07;;;7.10;99.90;;;;;;4974648;28;20057;-89
2023/12/09 14:16:30;;;;;;;10.63;2.70;;;7.30;99.90;;;;;;4975166;23;20066;-90
2023/12/09 14:19:17;;;;;;;8.87;2.80;;;6.40;99.90;;;;;;4952731;29;20051;-87
2023/12/09 14:21:53;;;;;;;8.73;2.50;;;6.40;99.90;;;;;;4953108;29;20043;-88
2023/12/09 14:24:20;;;;;;;11.50;2.93;;;7.10;99.90;;;;;;4955129;28;20130;-87
2023/12/09 14:26:46;;;;;;;9.73;2.40;;;7.10;99.90;;;;;;4968777;23;20054;-88
2023/12/09 14:31:46;;;;;;;12.70;2.73;;;7.00;99.90;;;;;;4949136;29;20055;-87
2023/12/09 14:34:17;;;;;;;13.37;3.03;;;7.00;99.90;;;;;;4934908;29;20066;-85
2023/12/09 14:36:55;;;;;;;11.70;2.73;;;6.90;99.90;;;;;;4929854;29;20044;-86
2023/12/09 14:39:27;;;;;;;12.33;2.50;;;6.90;99.90;;;;;;4937607;29;20043;-87
2023/12/09 14:41:52;;;;;;;11.83;2.73;;;6.90;99.90;;;;;;4928072;29;20476;-86
2023/12/09 14:45:10;;;;;;;;;;;;;;;;;;;;;
2023/12/09 14:51:19;;;;;;;11.53;3.03;;;7.00;99.90;;;;;;4937786;29;20098;-86
2023/12/09 14:53:58;;;;;;;;;;;;;;;;;;;;;
2023/12/09 14:56:44;;;;;;;15.17;3.00;;;5.80;99.90;;;;;;4911046;29;20134;-86
2023/12/09 15:00:03;;;;;;;12.23;2.80;;;6.70;99.90;;;;;;5021637;23;20047;-86
2023/12/09 15:03:23;;;;;;;14.30;3.20;;;7.60;99.90;;;;;;4989156;28;20062;-86
2023/12/09 15:06:17;;;;;;;15.27;3.53;;;6.60;99.90;;;;;;4993906;28;20490;-86
2023/12/09 15:12:08;;;;;;;12.77;3.03;;;6.70;99.90;;;;;;4947011;23;20063;-86
2023/12/09 15:14:39;;;;;;;11.73;2.87;;;6.70;99.90;;;;;;4975479;28;20067;-86
2023/12/09 15:17:25;;;;;;;12.20;3.00;;;6.70;99.90;;;;;;4975893;28;20109;-86
2023/12/09 15:20:03;;;;;;;15.20;3.33;;;5.90;99.90;;;;;;4963341;28;20480;-86
2023/12/09 15:22:46;;;;;;;15.73;2.93;;;6.70;99.90;;;;;;4971043;28;20458;-87
2023/12/09 15:29:02;;;;;;;14.50;2.83;;;7.40;99.90;;;;;;4862555;29;20136;-87
2023/12/09 15:31:52;;;;;;;15.23;3.03;;;5.60;99.90;;;;;;4956717;28;20495;-88
2023/12/09 15:34:46;;;;;;;12.00;3.30;;;6.60;99.90;;;;;;4955442;28;20069;-89
2023/12/09 15:37:42;;;;;;;10.25;2.65;;;6.30;99.90;;;;;;4963660;28;20077;-89
2023/12/09 15:47:51;;;;;;;11.70;3.10;;;6.40;99.90;;;;;;4865053;29;20049;-87
2023/12/09 15:50:49;;;;;;;10.40;2.93;;;6.50;99.90;;;;;;4886916;29;20065;-87
2023/12/09 15:54:14;;;;;;;;;;;;;;;;;;;;;
2023/12/09 16:07:48;;;;;;;12.30;4.40;;;6.00;99.90;;;;;;4921118;28;20051;-88
2023/12/09 16:19:06;;;;;;;14.30;4.00;;;6.50;99.90;;;;;;5278632;23;20077;-89
2023/12/09 16:22:02;;;;;;;14.57;4.80;;;6.50;99.90;;;;;;4994258;28;20089;-89
2023/12/09 16:25:08;;;;;;;13.60;4.83;;;6.50;99.90;;;;;;4976702;28;20097;-89
2023/12/09 16:27:55;;;;;;;13.80;4.47;;;8.00;99.90;;;;;;5018497;23;20073;-89
2023/12/09 16:30:42;;;;;;;13.83;4.77;;;6.50;99.90;;;;;;4957478;28;20043;-90
2023/12/09 16:33:42;;;;;;;;;;;;;;;;;;;;;
2023/12/09 16:37:04;;;;;;;16.93;4.60;;;6.40;99.90;;;;;;4870903;29;20061;-88
2023/12/09 16:39:58;;;;;;;;;;;;;;;;;;;;;
2023/12/09 16:42:50;;;;;;;12.23;4.17;;;6.40;99.90;;;;;;4969197;23;20576;-89
2023/12/09 16:48:48;;;;;;;17.10;5.50;;;6.50;99.90;;;;;;4976481;28;20046;-90
2023/12/09 16:54:27;;;;;;;12.27;4.43;;;6.40;99.90;;;;;;4990843;28;20061;-93
2023/12/09 16:59:29;;;;;;;12.83;4.27;;;6.40;99.90;;;;;;5009991;23;20060;-94
2023/12/09 17:02:07;;;;;;;12.13;4.00;;;6.40;99.90;;;;;;4939570;29;20051;-90
2023/12/09 18:05:16;;;;;;;;;;;;;;;;;;;;;
2023/12/09 18:17:15;;;;;;;11.67;4.00;;;6.10;99.90;;;;;;4901968;29;20059;-92
2023/12/09 18:46:24;;;;;;;8.93;3.43;;;6.20;99.90;;;;;;5313534;23;20154;-93
2023/12/09 18:49:48;;;;;;;10.83;4.30;;;6.20;99.90;;;;;;4949367;23;20063;-92
2023/12/09 18:52:20;;;;;;;9.40;3.90;;;6.20;99.90;;;;;;4899512;29;20441;-91
2023/12/09 18:54:54;;;;;;;10.20;3.90;;;6.20;99.90;;;;;;4902743;29;20044;-92
2023/12/09 18:57:26;;;;;;;10.37;4.00;;;6.10;99.90;;;;;;4901969;29;20071;-91
2023/12/09 19:00:01;;;;;;;10.43;4.37;;;6.10;99.90;;;;;;4902668;29;20086;-92
2023/12/09 19:02:54;;;;;;;10.37;4.57;;;6.10;99.90;;;;;;4903886;29;20048;-93
2023/12/09 19:16:11;;;;;;;11.33;5.00;;;7.20;99.90;;;;;;5477749;23;20073;-93
2023/12/09 19:19:04;;;;;;;12.87;5.40;;;5.60;99.90;;;;;;5067543;23;20067;-93
2023/12/09 19:21:47;;;;;;;12.10;5.13;;;6.30;99.90;;;;;;4923029;29;20396;-95
2023/12/09 19:26:43;;;;;;;11.50;5.40;;;6.30;99.90;;;;;;4912206;23;20538;-96
2023/12/09 19:29:39;;;;;;;11.93;5.77;;;6.30;99.90;;;;;;4969303;23;20062;-96
2023/12/09 20:07:55;;;;;;;18.43;9.03;;;6.60;99.90;;;;;;4913048;29;20113;-97
2023/12/09 20:20:37;;;;;;;;;;;6.30;99.90;;;;;;5022542;23;20110;-96
2023/12/09 20:23:07;;;;;;;20.00;9.40;;;6.90;99.90;;;;;;4925320;29;19922;-96
2023/12/09 20:29:14;;;;;;;24.13;15.17;;;7.10;99.90;;;;;;5233669;23;20054;-96
2023/12/09 20:31:46;;;;;;;19.30;9.53;;;7.90;99.90;;;;;;4947398;29;20492;-96
2023/12/09 20:34:46;;;;;;;21.20;12.80;;;7.60;99.90;;;;;;4941920;29;20054;-95
2023/12/09 20:37:28;;;;;;;29.13;19.10;;;7.60;99.90;;;;;;5124202;23;20112;-96
2023/12/09 22:37:41;;;;;;;28.40;4.88;;;8.30;99.90;;;;;;4904625;29;20135;-96
2023/12/09 22:47:30;;;;;;;23.75;4.82;;;8.10;99.90;;;;;;4971773;29;20086;-96
2023/12/09 22:54:10;;;;;;;47.13;17.17;;;8.00;99.90;;;;;;4941631;29;20052;-96
2023/12/09 22:56:55;;;;;;;40.17;13.30;;;8.80;99.90;;;;;;4940235;29;20062;-96
2023/12/09 23:00:25;;;;;;;40.40;12.77;;;8.70;99.90;;;;;;5041860;23;20060;-96
2023/12/09 23:06:38;;;;;;;36.67;14.40;;;8.70;99.90;;;;;;5044588;23;20058;-96
2023/12/09 23:11:49;;;;;;;25.50;6.17;;;8.70;99.90;;;;;;4948189;29;20059;-95
2023/12/09 23:24:36;;;;;;;25.57;3.87;;;9.50;99.90;;;;;;4974974;29;20034;-96
2023/12/09 23:27:04;;;;;;;31.23;8.18;;;8.90;99.90;;;;;;4963359;23;20051;-96
2023/12/09 23:29:35;;;;;;;21.63;7.00;;;8.60;99.90;;;;;;4954104;29;20385;-96
2023/12/09 23:34:41;;;;;;;27.35;7.18;;;8.70;99.90;;;;;;4980897;23;20070;-96
2023/12/09 23:37:21;;;;;;;33.28;10.07;;;8.70;99.90;;;;;;4953370;29;20554;-96